sensor_id;sensor_type;location;lat;lon;timestamp;P1;durP1;ratioP1;P2;durP2;ratioP2
18239;SDS011;9244;50.828;4.718;2022-07-29T00:00:38;1.30;;;0.85;;
18239;SDS011;9244;50.828;4.718;2022-07-29T00:03:04;1.20;;;0.93;;
18239;SDS011;9244;50.828;4.718;2022-07-29T00:05:30;1.00;;;0.70;;
18239;SDS011;9244;50.828;4.718;2022-07-29T00:07:55;0.98;;;0.77;;
18239;SDS011;9244;50.828;4.718;2022-07-29T00:10:21;1.48;;;0.90;;
18239;SDS011;9244;50.828;4.718;2022-07-29T00:12:47;1.23;;;0.82;;
18239;SDS011;9244;50.828;4.718;2022-07-29T00:15:12;0.90;;;0.73;;
18239;SDS011;9244;50.828;4.718;2022-07-29T00:17:38;1.95;;;0.93;;
18239;SDS011;9244;50.828;4.718;2022-07-29T00:20:04;1.70;;;1.08;;
18239;SDS011;9244;50.828;4.718;2022-07-29T00:22:31;1.50;;;0.90;;
18239;SDS011;9244;50.828;4.718;2022-07-29T00:24:56;3.80;;;1.00;;
18239;SDS011;9244;50.828;4.718;2022-07-29T00:27:22;2.13;;;0.77;;
18239;SDS011;9244;50.828;4.718;2022-07-29T00:29:47;1.85;;;1.38;;
18239;SDS011;9244;50.828;4.718;2022-07-29T00:32:13;1.48;;;1.08;;
18239;SDS011;9244;50.828;4.718;2022-07-29T00:34:39;2.08;;;0.80;;
18239;SDS011;9244;50.828;4.718;2022-07-29T00:37:23;2.38;;;1.00;;
18239;SDS011;9244;50.828;4.718;2022-07-29T00:39:49;1.10;;;0.73;;
18239;SDS011;9244;50.828;4.718;2022-07-29T00:42:15;2.30;;;0.98;;
18239;SDS011;9244;50.828;4.718;2022-07-29T00:44:41;1.27;;;0.93;;
18239;SDS011;9244;50.828;4.718;2022-07-29T00:47:08;3.30;;;1.10;;
18239;SDS011;9244;50.828;4.718;2022-07-29T00:49:35;2.03;;;1.25;;
18239;SDS011;9244;50.828;4.718;2022-07-29T00:52:02;1.98;;;0.88;;
18239;SDS011;9244;50.828;4.718;2022-07-29T00:54:32;1.20;;;0.88;;
18239;SDS011;9244;50.828;4.718;2022-07-29T00:56:59;1.85;;;0.80;;
18239;SDS011;9244;50.828;4.718;2022-07-29T00:59:26;2.83;;;1.17;;
18239;SDS011;9244;50.828;4.718;2022-07-29T01:01:52;1.65;;;0.95;;
18239;SDS011;9244;50.828;4.718;2022-07-29T01:04:19;2.25;;;1.27;;
18239;SDS011;9244;50.828;4.718;2022-07-29T01:06:46;1.17;;;0.88;;
18239;SDS011;9244;50.828;4.718;2022-07-29T01:09:13;1.73;;;0.88;;
18239;SDS011;9244;50.828;4.718;2022-07-29T01:11:39;1.42;;;0.93;;
18239;SDS011;9244;50.828;4.718;2022-07-29T01:14:06;1.17;;;0.80;;
18239;SDS011;9244;50.828;4.718;2022-07-29T01:16:36;1.20;;;0.80;;
18239;SDS011;9244;50.828;4.718;2022-07-29T01:22:24;2.13;;;1.27;;
18239;SDS011;9244;50.828;4.718;2022-07-29T01:25:03;0.90;;;0.90;;
18239;SDS011;9244;50.828;4.718;2022-07-29T01:30:20;2.40;;;1.00;;
18239;SDS011;9244;50.828;4.718;2022-07-29T01:32:50;1.48;;;1.33;;
18239;SDS011;9244;50.828;4.718;2022-07-29T01:35:23;1.65;;;1.10;;
18239;SDS011;9244;50.828;4.718;2022-07-29T01:40:40;2.22;;;0.98;;
18239;SDS011;9244;50.828;4.718;2022-07-29T01:43:16;2.78;;;1.30;;
18239;SDS011;9244;50.828;4.718;2022-07-29T01:45:46;1.85;;;1.20;;
18239;SDS011;9244;50.828;4.718;2022-07-29T01:48:19;2.00;;;1.40;;
18239;SDS011;9244;50.828;4.718;2022-07-29T01:50:49;1.95;;;1.15;;
18239;SDS011;9244;50.828;4.718;2022-07-29T01:53:23;1.38;;;1.10;;
18239;SDS011;9244;50.828;4.718;2022-07-29T01:55:52;1.73;;;1.00;;
18239;SDS011;9244;50.828;4.718;2022-07-29T01:58:19;1.42;;;1.05;;
18239;SDS011;9244;50.828;4.718;2022-07-29T02:00:46;2.17;;;1.27;;
18239;SDS011;9244;50.828;4.718;2022-07-29T02:03:14;2.40;;;1.02;;
18239;SDS011;9244;50.828;4.718;2022-07-29T02:05:42;2.10;;;1.38;;
18239;SDS011;9244;50.828;4.718;2022-07-29T02:08:11;1.55;;;1.20;;
18239;SDS011;9244;50.828;4.718;2022-07-29T02:10:40;1.98;;;1.30;;
18239;SDS011;9244;50.828;4.718;2022-07-29T02:13:08;2.00;;;1.13;;
18239;SDS011;9244;50.828;4.718;2022-07-29T02:15:36;2.35;;;1.23;;
18239;SDS011;9244;50.828;4.718;2022-07-29T02:18:07;1.52;;;1.10;;
18239;SDS011;9244;50.828;4.718;2022-07-29T02:20:35;2.75;;;1.30;;
18239;SDS011;9244;50.828;4.718;2022-07-29T02:23:03;1.17;;;1.08;;
18239;SDS011;9244;50.828;4.718;2022-07-29T02:25:29;2.55;;;1.55;;
18239;SDS011;9244;50.828;4.718;2022-07-29T02:27:56;0.98;;;0.98;;
18239;SDS011;9244;50.828;4.718;2022-07-29T02:30:23;1.30;;;1.20;;
18239;SDS011;9244;50.828;4.718;2022-07-29T02:32:51;2.58;;;1.30;;
18239;SDS011;9244;50.828;4.718;2022-07-29T02:35:18;3.00;;;1.10;;
18239;SDS011;9244;50.828;4.718;2022-07-29T02:37:46;1.83;;;1.20;;
18239;SDS011;9244;50.828;4.718;2022-07-29T02:40:35;2.05;;;1.00;;
18239;SDS011;9244;50.828;4.718;2022-07-29T02:43:05;1.88;;;1.33;;
18239;SDS011;9244;50.828;4.718;2022-07-29T02:45:32;2.58;;;1.30;;
18239;SDS011;9244;50.828;4.718;2022-07-29T02:47:59;2.45;;;1.30;;
18239;SDS011;9244;50.828;4.718;2022-07-29T02:50:32;2.70;;;1.55;;
18239;SDS011;9244;50.828;4.718;2022-07-29T02:53:02;1.20;;;1.10;;
18239;SDS011;9244;50.828;4.718;2022-07-29T02:55:51;2.33;;;1.02;;
18239;SDS011;9244;50.828;4.718;2022-07-29T02:58:25;1.50;;;1.10;;
18239;SDS011;9244;50.828;4.718;2022-07-29T03:00:57;1.15;;;1.00;;
18239;SDS011;9244;50.828;4.718;2022-07-29T03:03:28;3.35;;;1.27;;
18239;SDS011;9244;50.828;4.718;2022-07-29T03:05:57;3.42;;;1.08;;
18239;SDS011;9244;50.828;4.718;2022-07-29T03:08:26;2.35;;;1.42;;
18239;SDS011;9244;50.828;4.718;2022-07-29T03:10:52;1.88;;;1.08;;
18239;SDS011;9244;50.828;4.718;2022-07-29T03:13:19;1.63;;;1.20;;
18239;SDS011;9244;50.828;4.718;2022-07-29T03:15:45;2.85;;;1.40;;
18239;SDS011;9244;50.828;4.718;2022-07-29T03:18:12;1.52;;;1.38;;
18239;SDS011;9244;50.828;4.718;2022-07-29T03:20:39;3.53;;;1.40;;
18239;SDS011;9244;50.828;4.718;2022-07-29T03:23:05;1.77;;;1.38;;
18239;SDS011;9244;50.828;4.718;2022-07-29T03:25:32;2.22;;;1.70;;
18239;SDS011;9244;50.828;4.718;2022-07-29T03:27:58;2.92;;;1.55;;
18239;SDS011;9244;50.828;4.718;2022-07-29T03:30:24;2.72;;;1.60;;
18239;SDS011;9244;50.828;4.718;2022-07-29T03:32:50;1.92;;;1.42;;
18239;SDS011;9244;50.828;4.718;2022-07-29T03:35:17;2.40;;;1.75;;
18239;SDS011;9244;50.828;4.718;2022-07-29T03:37:43;1.20;;;1.10;;
18239;SDS011;9244;50.828;4.718;2022-07-29T03:40:10;2.85;;;1.40;;
18239;SDS011;9244;50.828;4.718;2022-07-29T03:42:42;2.17;;;1.95;;
18239;SDS011;9244;50.828;4.718;2022-07-29T03:45:10;2.65;;;1.52;;
18239;SDS011;9244;50.828;4.718;2022-07-29T03:47:44;2.10;;;1.30;;
18239;SDS011;9244;50.828;4.718;2022-07-29T03:50:14;2.20;;;1.65;;
18239;SDS011;9244;50.828;4.718;2022-07-29T03:52:41;3.38;;;2.17;;
18239;SDS011;9244;50.828;4.718;2022-07-29T03:55:07;2.58;;;1.50;;
18239;SDS011;9244;50.828;4.718;2022-07-29T03:57:34;4.33;;;1.60;;
18239;SDS011;9244;50.828;4.718;2022-07-29T04:00:01;3.15;;;1.83;;
18239;SDS011;9244;50.828;4.718;2022-07-29T04:02:29;2.23;;;1.57;;
18239;SDS011;9244;50.828;4.718;2022-07-29T04:04:56;5.23;;;1.73;;
18239;SDS011;9244;50.828;4.718;2022-07-29T04:07:22;1.80;;;1.43;;
18239;SDS011;9244;50.828;4.718;2022-07-29T04:09:48;2.40;;;1.40;;
18239;SDS011;9244;50.828;4.718;2022-07-29T04:12:14;2.83;;;1.57;;
18239;SDS011;9244;50.828;4.718;2022-07-29T04:14:39;1.83;;;1.63;;
18239;SDS011;9244;50.828;4.718;2022-07-29T04:17:05;2.27;;;1.60;;
18239;SDS011;9244;50.828;4.718;2022-07-29T04:19:31;3.70;;;1.80;;
18239;SDS011;9244;50.828;4.718;2022-07-29T04:21:57;2.33;;;1.47;;
18239;SDS011;9244;50.828;4.718;2022-07-29T04:24:23;1.60;;;1.40;;
18239;SDS011;9244;50.828;4.718;2022-07-29T04:26:49;2.07;;;1.50;;
18239;SDS011;9244;50.828;4.718;2022-07-29T04:29:15;3.17;;;1.63;;
18239;SDS011;9244;50.828;4.718;2022-07-29T04:31:41;3.83;;;1.53;;
18239;SDS011;9244;50.828;4.718;2022-07-29T04:34:07;2.83;;;1.53;;
18239;SDS011;9244;50.828;4.718;2022-07-29T04:36:33;3.70;;;1.43;;
18239;SDS011;9244;50.828;4.718;2022-07-29T04:38:59;1.77;;;1.40;;
18239;SDS011;9244;50.828;4.718;2022-07-29T04:41:26;2.03;;;1.37;;
18239;SDS011;9244;50.828;4.718;2022-07-29T04:43:52;1.63;;;1.53;;
18239;SDS011;9244;50.828;4.718;2022-07-29T04:46:17;2.00;;;1.30;;
18239;SDS011;9244;50.828;4.718;2022-07-29T04:48:45;1.50;;;1.40;;
18239;SDS011;9244;50.828;4.718;2022-07-29T04:51:11;1.83;;;1.53;;
18239;SDS011;9244;50.828;4.718;2022-07-29T04:53:37;2.37;;;1.63;;
18239;SDS011;9244;50.828;4.718;2022-07-29T04:56:02;2.43;;;1.60;;
18239;SDS011;9244;50.828;4.718;2022-07-29T04:58:28;2.10;;;1.80;;
18239;SDS011;9244;50.828;4.718;2022-07-29T05:00:54;1.80;;;1.42;;
18239;SDS011;9244;50.828;4.718;2022-07-29T05:03:20;1.73;;;1.50;;
18239;SDS011;9244;50.828;4.718;2022-07-29T05:05:45;2.13;;;1.50;;
18239;SDS011;9244;50.828;4.718;2022-07-29T05:08:11;2.47;;;1.80;;
18239;SDS011;9244;50.828;4.718;2022-07-29T05:10:37;3.17;;;1.50;;
18239;SDS011;9244;50.828;4.718;2022-07-29T05:13:06;2.47;;;1.60;;
18239;SDS011;9244;50.828;4.718;2022-07-29T05:15:35;3.17;;;1.77;;
18239;SDS011;9244;50.828;4.718;2022-07-29T05:18:02;2.95;;;2.10;;
18239;SDS011;9244;50.828;4.718;2022-07-29T05:20:28;1.50;;;1.40;;
18239;SDS011;9244;50.828;4.718;2022-07-29T05:22:55;2.25;;;1.58;;
18239;SDS011;9244;50.828;4.718;2022-07-29T05:25:22;2.95;;;1.80;;
18239;SDS011;9244;50.828;4.718;2022-07-29T05:27:48;2.20;;;1.58;;
18239;SDS011;9244;50.828;4.718;2022-07-29T05:30:14;1.83;;;1.73;;
18239;SDS011;9244;50.828;4.718;2022-07-29T05:32:39;2.33;;;1.48;;
18239;SDS011;9244;50.828;4.718;2022-07-29T05:35:05;2.50;;;1.30;;
18239;SDS011;9244;50.828;4.718;2022-07-29T05:37:31;2.13;;;1.20;;
18239;SDS011;9244;50.828;4.718;2022-07-29T05:39:58;2.25;;;1.50;;
18239;SDS011;9244;50.828;4.718;2022-07-29T05:42:24;4.63;;;1.50;;
18239;SDS011;9244;50.828;4.718;2022-07-29T05:44:50;1.85;;;1.40;;
18239;SDS011;9244;50.828;4.718;2022-07-29T05:47:16;2.42;;;1.20;;
18239;SDS011;9244;50.828;4.718;2022-07-29T05:49:41;1.48;;;1.20;;
18239;SDS011;9244;50.828;4.718;2022-07-29T05:52:07;1.70;;;1.60;;
18239;SDS011;9244;50.828;4.718;2022-07-29T05:54:34;1.73;;;1.50;;
18239;SDS011;9244;50.828;4.718;2022-07-29T05:56:59;1.70;;;1.60;;
18239;SDS011;9244;50.828;4.718;2022-07-29T05:59:25;2.03;;;1.30;;
18239;SDS011;9244;50.828;4.718;2022-07-29T06:01:51;2.40;;;1.77;;
18239;SDS011;9244;50.828;4.718;2022-07-29T06:04:17;1.95;;;1.80;;
18239;SDS011;9244;50.828;4.718;2022-07-29T06:06:42;2.00;;;1.75;;
18239;SDS011;9244;50.828;4.718;2022-07-29T06:09:08;2.67;;;1.70;;
18239;SDS011;9244;50.828;4.718;2022-07-29T06:11:34;2.10;;;1.90;;
18239;SDS011;9244;50.828;4.718;2022-07-29T06:13:59;2.30;;;1.73;;
18239;SDS011;9244;50.828;4.718;2022-07-29T06:16:25;3.38;;;1.85;;
18239;SDS011;9244;50.828;4.718;2022-07-29T06:18:51;1.88;;;1.50;;
18239;SDS011;9244;50.828;4.718;2022-07-29T06:21:17;4.00;;;2.45;;
18239;SDS011;9244;50.828;4.718;2022-07-29T06:23:42;2.58;;;1.60;;
18239;SDS011;9244;50.828;4.718;2022-07-29T06:26:10;2.05;;;1.95;;
18239;SDS011;9244;50.828;4.718;2022-07-29T06:28:35;1.73;;;1.63;;
18239;SDS011;9244;50.828;4.718;2022-07-29T06:31:01;2.35;;;1.73;;
18239;SDS011;9244;50.828;4.718;2022-07-29T06:33:27;2.83;;;1.73;;
18239;SDS011;9244;50.828;4.718;2022-07-29T06:35:52;1.58;;;1.48;;
18239;SDS011;9244;50.828;4.718;2022-07-29T06:38:18;2.45;;;2.25;;
18239;SDS011;9244;50.828;4.718;2022-07-29T06:40:44;3.30;;;2.20;;
18239;SDS011;9244;50.828;4.718;2022-07-29T06:43:28;2.45;;;1.90;;
18239;SDS011;9244;50.828;4.718;2022-07-29T06:46:01;2.35;;;1.88;;
18239;SDS011;9244;50.828;4.718;2022-07-29T06:48:27;2.75;;;2.00;;
18239;SDS011;9244;50.828;4.718;2022-07-29T06:50:54;3.00;;;1.80;;
18239;SDS011;9244;50.828;4.718;2022-07-29T06:53:19;1.73;;;1.63;;
18239;SDS011;9244;50.828;4.718;2022-07-29T06:55:45;2.58;;;1.75;;
18239;SDS011;9244;50.828;4.718;2022-07-29T06:58:11;2.30;;;1.63;;
18239;SDS011;9244;50.828;4.718;2022-07-29T07:00:39;2.30;;;2.10;;
18239;SDS011;9244;50.828;4.718;2022-07-29T07:03:05;3.17;;;2.42;;
18239;SDS011;9244;50.828;4.718;2022-07-29T07:05:31;3.97;;;1.80;;
18239;SDS011;9244;50.828;4.718;2022-07-29T07:07:56;2.40;;;2.17;;
18239;SDS011;9244;50.828;4.718;2022-07-29T07:10:22;2.38;;;2.10;;
18239;SDS011;9244;50.828;4.718;2022-07-29T07:12:48;2.60;;;1.90;;
18239;SDS011;9244;50.828;4.718;2022-07-29T07:15:13;1.80;;;1.70;;
18239;SDS011;9244;50.828;4.718;2022-07-29T07:17:39;2.75;;;1.80;;
18239;SDS011;9244;50.828;4.718;2022-07-29T07:20:05;2.13;;;1.85;;
18239;SDS011;9244;50.828;4.718;2022-07-29T07:22:31;3.30;;;2.05;;
18239;SDS011;9244;50.828;4.718;2022-07-29T07:24:56;2.08;;;1.55;;
18239;SDS011;9244;50.828;4.718;2022-07-29T07:27:22;5.25;;;2.33;;
18239;SDS011;9244;50.828;4.718;2022-07-29T07:29:47;3.25;;;1.92;;
18239;SDS011;9244;50.828;4.718;2022-07-29T07:32:13;2.50;;;2.10;;
18239;SDS011;9244;50.828;4.718;2022-07-29T07:34:41;2.67;;;2.05;;
18239;SDS011;9244;50.828;4.718;2022-07-29T07:37:08;2.88;;;1.90;;
18239;SDS011;9244;50.828;4.718;2022-07-29T07:39:33;2.65;;;1.77;;
18239;SDS011;9244;50.828;4.718;2022-07-29T07:41:59;2.50;;;1.75;;
18239;SDS011;9244;50.828;4.718;2022-07-29T07:44:25;2.00;;;1.80;;
18239;SDS011;9244;50.828;4.718;2022-07-29T07:46:51;2.42;;;1.67;;
18239;SDS011;9244;50.828;4.718;2022-07-29T07:49:17;2.05;;;1.67;;
18239;SDS011;9244;50.828;4.718;2022-07-29T07:51:42;2.47;;;2.10;;
18239;SDS011;9244;50.828;4.718;2022-07-29T07:54:08;2.53;;;2.33;;
18239;SDS011;9244;50.828;4.718;2022-07-29T07:56:33;2.80;;;1.90;;
18239;SDS011;9244;50.828;4.718;2022-07-29T07:58:59;3.85;;;2.10;;
18239;SDS011;9244;50.828;4.718;2022-07-29T08:01:25;3.35;;;2.20;;
18239;SDS011;9244;50.828;4.718;2022-07-29T08:03:50;2.42;;;2.05;;
18239;SDS011;9244;50.828;4.718;2022-07-29T08:06:16;2.35;;;1.98;;
18239;SDS011;9244;50.828;4.718;2022-07-29T08:08:41;2.20;;;2.00;;
18239;SDS011;9244;50.828;4.718;2022-07-29T08:11:07;2.88;;;2.45;;
18239;SDS011;9244;50.828;4.718;2022-07-29T08:13:33;2.80;;;1.90;;
18239;SDS011;9244;50.828;4.718;2022-07-29T08:15:59;1.70;;;1.60;;
18239;SDS011;9244;50.828;4.718;2022-07-29T08:18:30;1.92;;;1.55;;
18239;SDS011;9244;50.828;4.718;2022-07-29T08:20:57;2.03;;;1.77;;
18239;SDS011;9244;50.828;4.718;2022-07-29T08:23:23;4.10;;;2.10;;
18239;SDS011;9244;50.828;4.718;2022-07-29T08:25:49;3.50;;;1.80;;
18239;SDS011;9244;50.828;4.718;2022-07-29T08:28:15;3.20;;;2.13;;
18239;SDS011;9244;50.828;4.718;2022-07-29T08:30:41;1.88;;;1.77;;
18239;SDS011;9244;50.828;4.718;2022-07-29T08:33:07;2.45;;;2.25;;
18239;SDS011;9244;50.828;4.718;2022-07-29T08:35:32;2.72;;;1.55;;
18239;SDS011;9244;50.828;4.718;2022-07-29T08:37:58;3.28;;;2.42;;
18239;SDS011;9244;50.828;4.718;2022-07-29T08:40:24;1.70;;;1.60;;
18239;SDS011;9244;50.828;4.718;2022-07-29T08:42:50;2.15;;;1.92;;
18239;SDS011;9244;50.828;4.718;2022-07-29T08:45:16;4.18;;;2.08;;
18239;SDS011;9244;50.828;4.718;2022-07-29T08:47:43;2.28;;;1.73;;
18239;SDS011;9244;50.828;4.718;2022-07-29T08:50:10;3.00;;;2.00;;
18239;SDS011;9244;50.828;4.718;2022-07-29T08:52:36;2.20;;;1.83;;
18239;SDS011;9244;50.828;4.718;2022-07-29T08:55:05;2.50;;;2.30;;
18239;SDS011;9244;50.828;4.718;2022-07-29T08:57:33;2.30;;;2.08;;
18239;SDS011;9244;50.828;4.718;2022-07-29T09:00:00;4.13;;;2.00;;
18239;SDS011;9244;50.828;4.718;2022-07-29T09:02:29;1.77;;;1.65;;
18239;SDS011;9244;50.828;4.718;2022-07-29T09:05:00;2.72;;;1.33;;
18239;SDS011;9244;50.828;4.718;2022-07-29T09:07:27;2.00;;;1.90;;
18239;SDS011;9244;50.828;4.718;2022-07-29T09:09:53;2.15;;;1.50;;
18239;SDS011;9244;50.828;4.718;2022-07-29T09:12:19;3.08;;;1.95;;
18239;SDS011;9244;50.828;4.718;2022-07-29T09:14:47;2.00;;;1.80;;
18239;SDS011;9244;50.828;4.718;2022-07-29T09:17:13;1.90;;;1.80;;
18239;SDS011;9244;50.828;4.718;2022-07-29T09:19:41;2.50;;;1.75;;
18239;SDS011;9244;50.828;4.718;2022-07-29T09:22:07;2.25;;;1.70;;
18239;SDS011;9244;50.828;4.718;2022-07-29T09:27:08;2.85;;;1.80;;
18239;SDS011;9244;50.828;4.718;2022-07-29T09:29:44;2.53;;;1.58;;
18239;SDS011;9244;50.828;4.718;2022-07-29T09:32:10;2.50;;;1.60;;
18239;SDS011;9244;50.828;4.718;2022-07-29T09:34:36;1.55;;;1.38;;
18239;SDS011;9244;50.828;4.718;2022-07-29T09:37:02;1.50;;;1.10;;
18239;SDS011;9244;50.828;4.718;2022-07-29T09:39:33;1.92;;;1.45;;
18239;SDS011;9244;50.828;4.718;2022-07-29T09:42:04;2.70;;;1.70;;
18239;SDS011;9244;50.828;4.718;2022-07-29T09:44:44;2.28;;;1.25;;
18239;SDS011;9244;50.828;4.718;2022-07-29T09:47:11;1.40;;;1.20;;
18239;SDS011;9244;50.828;4.718;2022-07-29T09:49:50;2.35;;;1.42;;
18239;SDS011;9244;50.828;4.718;2022-07-29T09:52:23;1.30;;;1.20;;
18239;SDS011;9244;50.828;4.718;2022-07-29T09:54:49;1.90;;;1.20;;
18239;SDS011;9244;50.828;4.718;2022-07-29T09:57:25;1.08;;;0.98;;
18239;SDS011;9244;50.828;4.718;2022-07-29T10:02:32;1.70;;;1.00;;
18239;SDS011;9244;50.828;4.718;2022-07-29T10:05:01;1.00;;;1.00;;
18239;SDS011;9244;50.828;4.718;2022-07-29T10:07:43;1.63;;;1.10;;
18239;SDS011;9244;50.828;4.718;2022-07-29T10:10:10;1.15;;;1.08;;
18239;SDS011;9244;50.828;4.718;2022-07-29T10:12:47;1.38;;;1.02;;
18239;SDS011;9244;50.828;4.718;2022-07-29T10:15:15;1.85;;;1.17;;
18239;SDS011;9244;50.828;4.718;2022-07-29T10:17:40;1.27;;;1.17;;
18239;SDS011;9244;50.828;4.718;2022-07-29T10:20:07;1.15;;;0.90;;
18239;SDS011;9244;50.828;4.718;2022-07-29T10:22:33;1.00;;;1.00;;
18239;SDS011;9244;50.828;4.718;2022-07-29T10:24:59;1.95;;;1.35;;
18239;SDS011;9244;50.828;4.718;2022-07-29T10:27:24;1.15;;;1.05;;
18239;SDS011;9244;50.828;4.718;2022-07-29T10:29:50;1.13;;;0.98;;
18239;SDS011;9244;50.828;4.718;2022-07-29T10:35:01;2.13;;;1.33;;
18239;SDS011;9244;50.828;4.718;2022-07-29T10:41:03;1.73;;;1.30;;
18239;SDS011;9244;50.828;4.718;2022-07-29T10:43:45;1.42;;;1.05;;
18239;SDS011;9244;50.828;4.718;2022-07-29T10:46:12;1.27;;;1.17;;
18239;SDS011;9244;50.828;4.718;2022-07-29T10:51:54;2.92;;;1.00;;
18239;SDS011;9244;50.828;4.718;2022-07-29T10:57:11;1.83;;;1.27;;
18239;SDS011;9244;50.828;4.718;2022-07-29T10:59:37;1.55;;;1.08;;
18239;SDS011;9244;50.828;4.718;2022-07-29T11:02:09;1.73;;;1.20;;
18239;SDS011;9244;50.828;4.718;2022-07-29T11:05:04;2.40;;;1.10;;
18239;SDS011;9244;50.828;4.718;2022-07-29T11:07:31;2.10;;;1.23;;
18239;SDS011;9244;50.828;4.718;2022-07-29T11:10:19;2.35;;;1.10;;
18239;SDS011;9244;50.828;4.718;2022-07-29T11:12:46;1.70;;;1.30;;
18239;SDS011;9244;50.828;4.718;2022-07-29T11:15:13;1.58;;;1.05;;
18239;SDS011;9244;50.828;4.718;2022-07-29T11:23:20;2.10;;;1.00;;
18239;SDS011;9244;50.828;4.718;2022-07-29T11:26:12;3.58;;;2.15;;
18239;SDS011;9244;50.828;4.718;2022-07-29T11:28:34;1.52;;;1.20;;
18239;SDS011;9244;50.828;4.718;2022-07-29T11:31:07;1.20;;;1.10;;
18239;SDS011;9244;50.828;4.718;2022-07-29T11:33:34;1.85;;;1.13;;
18239;SDS011;9244;50.828;4.718;2022-07-29T11:36:09;1.50;;;1.20;;
18239;SDS011;9244;50.828;4.718;2022-07-29T11:38:39;4.07;;;1.35;;
18239;SDS011;9244;50.828;4.718;2022-07-29T11:43:49;1.42;;;1.20;;
18239;SDS011;9244;50.828;4.718;2022-07-29T11:49:11;1.30;;;1.20;;
18239;SDS011;9244;50.828;4.718;2022-07-29T11:51:39;2.95;;;1.27;;
18239;SDS011;9244;50.828;4.718;2022-07-29T11:54:07;1.58;;;1.10;;
18239;SDS011;9244;50.828;4.718;2022-07-29T11:56:36;2.15;;;1.30;;
18239;SDS011;9244;50.828;4.718;2022-07-29T11:59:07;2.17;;;1.23;;
18239;SDS011;9244;50.828;4.718;2022-07-29T12:01:34;2.60;;;1.23;;
18239;SDS011;9244;50.828;4.718;2022-07-29T12:04:09;1.45;;;1.10;;
18239;SDS011;9244;50.828;4.718;2022-07-29T12:06:35;3.53;;;1.50;;
18239;SDS011;9244;50.828;4.718;2022-07-29T12:09:06;2.15;;;1.20;;
18239;SDS011;9244;50.828;4.718;2022-07-29T12:11:32;1.30;;;1.20;;
18239;SDS011;9244;50.828;4.718;2022-07-29T12:13:58;1.50;;;1.40;;
18239;SDS011;9244;50.828;4.718;2022-07-29T12:16:33;1.60;;;1.15;;
18239;SDS011;9244;50.828;4.718;2022-07-29T12:19:02;1.10;;;1.02;;
18239;SDS011;9244;50.828;4.718;2022-07-29T12:21:29;2.60;;;1.42;;
18239;SDS011;9244;50.828;4.718;2022-07-29T12:24:17;1.90;;;1.50;;
18239;SDS011;9244;50.828;4.718;2022-07-29T12:26:51;1.75;;;1.38;;
18239;SDS011;9244;50.828;4.718;2022-07-29T12:29:18;2.00;;;1.50;;
18239;SDS011;9244;50.828;4.718;2022-07-29T12:31:44;1.17;;;1.00;;
18239;SDS011;9244;50.828;4.718;2022-07-29T12:34:12;1.70;;;1.40;;
18239;SDS011;9244;50.828;4.718;2022-07-29T12:36:40;1.45;;;1.33;;
18239;SDS011;9244;50.828;4.718;2022-07-29T12:39:07;2.45;;;1.35;;
18239;SDS011;9244;50.828;4.718;2022-07-29T12:41:34;1.67;;;1.20;;
18239;SDS011;9244;50.828;4.718;2022-07-29T12:44:00;2.78;;;1.35;;
18239;SDS011;9244;50.828;4.718;2022-07-29T12:46:26;2.60;;;1.55;;
18239;SDS011;9244;50.828;4.718;2022-07-29T12:48:52;1.95;;;1.40;;
18239;SDS011;9244;50.828;4.718;2022-07-29T12:51:31;1.38;;;1.17;;
18239;SDS011;9244;50.828;4.718;2022-07-29T12:54:08;1.52;;;1.15;;
18239;SDS011;9244;50.828;4.718;2022-07-29T12:56:39;2.30;;;2.10;;
18239;SDS011;9244;50.828;4.718;2022-07-29T12:59:22;2.35;;;1.48;;
18239;SDS011;9244;50.828;4.718;2022-07-29T13:01:49;1.65;;;1.20;;
18239;SDS011;9244;50.828;4.718;2022-07-29T13:04:25;3.15;;;1.40;;
18239;SDS011;9244;50.828;4.718;2022-07-29T13:06:57;1.63;;;1.25;;
18239;SDS011;9244;50.828;4.718;2022-07-29T13:09:35;2.05;;;1.30;;
18239;SDS011;9244;50.828;4.718;2022-07-29T13:12:13;1.88;;;1.30;;
18239;SDS011;9244;50.828;4.718;2022-07-29T13:14:40;1.10;;;1.00;;
18239;SDS011;9244;50.828;4.718;2022-07-29T13:17:18;1.92;;;1.20;;
18239;SDS011;9244;50.828;4.718;2022-07-29T13:20:15;4.50;;;1.25;;
18239;SDS011;9244;50.828;4.718;2022-07-29T13:22:42;2.72;;;1.33;;
18239;SDS011;9244;50.828;4.718;2022-07-29T13:25:12;1.10;;;1.00;;
18239;SDS011;9244;50.828;4.718;2022-07-29T13:27:37;1.20;;;1.10;;
18239;SDS011;9244;50.828;4.718;2022-07-29T13:30:06;2.08;;;1.30;;
18239;SDS011;9244;50.828;4.718;2022-07-29T13:32:33;3.25;;;1.60;;
18239;SDS011;9244;50.828;4.718;2022-07-29T13:35:01;4.88;;;1.25;;
18239;SDS011;9244;50.828;4.718;2022-07-29T13:37:28;2.08;;;1.80;;
18239;SDS011;9244;50.828;4.718;2022-07-29T13:39:54;1.65;;;1.20;;
18239;SDS011;9244;50.828;4.718;2022-07-29T13:42:21;0.95;;;0.95;;
18239;SDS011;9244;50.828;4.718;2022-07-29T13:44:47;2.55;;;2.13;;
18239;SDS011;9244;50.828;4.718;2022-07-29T13:47:17;1.10;;;1.10;;
18239;SDS011;9244;50.828;4.718;2022-07-29T13:49:46;2.35;;;1.38;;
18239;SDS011;9244;50.828;4.718;2022-07-29T13:52:12;3.28;;;1.27;;
18239;SDS011;9244;50.828;4.718;2022-07-29T13:54:38;2.75;;;1.45;;
18239;SDS011;9244;50.828;4.718;2022-07-29T13:57:04;1.40;;;1.30;;
18239;SDS011;9244;50.828;4.718;2022-07-29T13:59:30;2.38;;;1.45;;
18239;SDS011;9244;50.828;4.718;2022-07-29T14:01:56;1.35;;;1.25;;
18239;SDS011;9244;50.828;4.718;2022-07-29T14:04:21;1.77;;;1.40;;
18239;SDS011;9244;50.828;4.718;2022-07-29T14:06:48;3.80;;;1.48;;
18239;SDS011;9244;50.828;4.718;2022-07-29T14:09:14;1.20;;;1.10;;
18239;SDS011;9244;50.828;4.718;2022-07-29T14:11:40;3.35;;;1.40;;
18239;SDS011;9244;50.828;4.718;2022-07-29T14:14:06;1.30;;;1.20;;
18239;SDS011;9244;50.828;4.718;2022-07-29T14:16:32;2.03;;;1.80;;
18239;SDS011;9244;50.828;4.718;2022-07-29T14:18:57;1.48;;;1.30;;
18239;SDS011;9244;50.828;4.718;2022-07-29T14:21:23;3.10;;;1.42;;
18239;SDS011;9244;50.828;4.718;2022-07-29T14:23:49;2.50;;;1.40;;
18239;SDS011;9244;50.828;4.718;2022-07-29T14:26:15;2.22;;;1.42;;
18239;SDS011;9244;50.828;4.718;2022-07-29T14:28:41;1.40;;;1.30;;
18239;SDS011;9244;50.828;4.718;2022-07-29T14:31:07;2.08;;;1.98;;
18239;SDS011;9244;50.828;4.718;2022-07-29T14:33:33;2.92;;;1.70;;
18239;SDS011;9244;50.828;4.718;2022-07-29T14:35:58;3.38;;;1.45;;
18239;SDS011;9244;50.828;4.718;2022-07-29T14:38:24;2.83;;;1.58;;
18239;SDS011;9244;50.828;4.718;2022-07-29T14:40:50;2.58;;;1.77;;
18239;SDS011;9244;50.828;4.718;2022-07-29T14:43:16;1.55;;;1.40;;
18239;SDS011;9244;50.828;4.718;2022-07-29T14:45:41;1.50;;;1.40;;
18239;SDS011;9244;50.828;4.718;2022-07-29T14:48:07;2.47;;;1.90;;
18239;SDS011;9244;50.828;4.718;2022-07-29T14:50:33;2.75;;;1.90;;
18239;SDS011;9244;50.828;4.718;2022-07-29T14:52:59;2.30;;;2.10;;
18239;SDS011;9244;50.828;4.718;2022-07-29T14:55:25;1.85;;;1.75;;
18239;SDS011;9244;50.828;4.718;2022-07-29T14:57:52;2.38;;;2.17;;
18239;SDS011;9244;50.828;4.718;2022-07-29T15:00:18;3.35;;;2.25;;
18239;SDS011;9244;50.828;4.718;2022-07-29T15:02:45;2.85;;;1.75;;
18239;SDS011;9244;50.828;4.718;2022-07-29T15:05:11;4.72;;;2.42;;
18239;SDS011;9244;50.828;4.718;2022-07-29T15:07:37;2.38;;;1.77;;
18239;SDS011;9244;50.828;4.718;2022-07-29T15:10:03;2.10;;;1.90;;
18239;SDS011;9244;50.828;4.718;2022-07-29T15:12:29;1.92;;;1.65;;
18239;SDS011;9244;50.828;4.718;2022-07-29T15:14:55;2.22;;;1.52;;
18239;SDS011;9244;50.828;4.718;2022-07-29T15:17:21;4.03;;;1.88;;
18239;SDS011;9244;50.828;4.718;2022-07-29T15:19:47;1.60;;;1.50;;
18239;SDS011;9244;50.828;4.718;2022-07-29T15:22:12;2.10;;;1.50;;
18239;SDS011;9244;50.828;4.718;2022-07-29T15:24:38;2.53;;;1.52;;
18239;SDS011;9244;50.828;4.718;2022-07-29T15:27:03;1.67;;;1.50;;
18239;SDS011;9244;50.828;4.718;2022-07-29T15:29:29;1.70;;;1.60;;
18239;SDS011;9244;50.828;4.718;2022-07-29T15:31:55;3.58;;;1.60;;
18239;SDS011;9244;50.828;4.718;2022-07-29T15:34:20;2.17;;;1.65;;
18239;SDS011;9244;50.828;4.718;2022-07-29T15:36:48;2.05;;;1.15;;
18239;SDS011;9244;50.828;4.718;2022-07-29T15:39:17;2.85;;;1.40;;
18239;SDS011;9244;50.828;4.718;2022-07-29T15:41:42;1.77;;;1.63;;